createdAt,value
2022-11-24T00:02:27.283Z,14.45
2022-11-24T00:05:14.199Z,17.50
2022-11-24T00:07:54.392Z,18.70
2022-11-24T00:10:41.177Z,19.17
2022-11-24T00:13:21.317Z,17.92
2022-11-24T00:16:40.219Z,18.48
2022-11-24T00:19:28.636Z,15.68
2022-11-24T00:22:15.192Z,18.10
2022-11-24T00:25:02.327Z,18.80
2022-11-24T00:27:42.191Z,18.08
2022-11-24T00:30:29.397Z,16.63
2022-11-24T00:33:09.237Z,16.52
2022-11-24T00:36:07.194Z,17.13
2022-11-24T00:38:54.212Z,13.27
2022-11-24T00:41:41.205Z,15.13
2022-11-24T00:44:21.331Z,13.20
2022-11-24T00:47:08.289Z,19.00
2022-11-24T00:49:48.254Z,18.00
2022-11-24T00:52:35.192Z,12.70
2022-11-24T00:55:15.254Z,21.45
2022-11-24T00:58:02.230Z,15.68
2022-11-24T01:00:49.207Z,14.32
2022-11-24T01:03:29.852Z,16.25
2022-11-24T01:06:22.193Z,16.42
2022-11-24T01:09:10.180Z,18.48
2022-11-24T01:12:02.284Z,15.27
2022-11-24T01:14:49.188Z,12.90
2022-11-24T01:17:36.222Z,18.30
2022-11-24T01:20:23.191Z,16.92
2022-11-24T01:23:03.350Z,17.27
2022-11-24T01:25:50.192Z,15.82
2022-11-24T01:28:40.592Z,15.18
2022-11-24T01:31:31.201Z,13.15
2022-11-24T01:34:11.343Z,12.90
2022-11-24T01:36:58.201Z,18.00
2022-11-24T01:39:38.247Z,14.15
2022-11-24T01:42:25.211Z,16.15
2022-11-24T01:45:43.262Z,15.32
2022-11-24T01:51:24.228Z,15.77
2022-11-24T01:54:34.412Z,18.15
2022-11-24T01:57:29.204Z,15.20
2022-11-24T02:00:19.248Z,13.05
2022-11-24T02:03:00.258Z,14.48
2022-11-24T02:05:50.147Z,14.30
2022-11-24T02:08:47.195Z,13.90
2022-11-24T02:11:39.301Z,11.90
2022-11-24T02:14:35.435Z,19.17
2022-11-24T02:17:15.729Z,14.07
2022-11-24T02:20:14.215Z,16.05
2022-11-24T02:23:18.515Z,13.43
2022-11-24T02:26:36.171Z,12.75
2022-11-24T02:32:08.189Z,14.25
2022-11-24T02:34:55.270Z,14.20
2022-11-24T02:37:35.185Z,10.80
2022-11-24T02:40:26.317Z,14.18
2022-11-24T02:43:20.187Z,13.38
2022-11-24T02:46:07.238Z,13.00
2022-11-24T02:48:54.208Z,14.57
2022-11-24T02:51:41.184Z,10.20
2022-11-24T02:54:21.869Z,13.68
2022-11-24T02:57:08.196Z,10.93
2022-11-24T02:59:48.842Z,14.25
2022-11-24T03:02:35.280Z,14.30
2022-11-24T03:05:22.339Z,12.10
2022-11-24T03:08:02.240Z,13.40
2022-11-24T03:10:42.925Z,16.95
2022-11-24T03:13:29.203Z,16.08
2022-11-24T03:16:23.269Z,10.45
2022-11-24T03:19:11.185Z,9.93
2022-11-24T03:21:51.271Z,11.27
2022-11-24T03:24:38.185Z,12.95
2022-11-24T03:27:25.194Z,8.38
2022-11-24T03:30:13.304Z,18.17
2022-11-24T03:32:53.213Z,13.30
2022-11-24T03:35:40.208Z,14.50
2022-11-24T03:38:20.260Z,12.77
2022-11-24T03:41:07.249Z,10.02
2022-11-24T03:43:47.333Z,15.02
2022-11-24T03:46:34.245Z,11.23
2022-11-24T03:49:14.296Z,9.23
2022-11-24T03:52:05.246Z,14.02
2022-11-24T03:54:47.800Z,9.80
2022-11-24T03:57:34.203Z,11.98
2022-11-24T04:00:15.631Z,9.32
2022-11-24T04:03:02.236Z,11.63
2022-11-24T04:05:42.270Z,11.55
2022-11-24T04:08:29.218Z,11.23
2022-11-24T04:11:37.185Z,14.10
2022-11-24T04:14:31.344Z,21.27
2022-11-24T04:17:25.189Z,10.63
2022-11-24T04:20:06.552Z,10.43
2022-11-24T04:25:34.472Z,11.02
2022-11-24T04:28:22.195Z,10.70
2022-11-24T04:31:06.347Z,13.43
2022-11-24T04:33:53.227Z,11.13
2022-11-24T04:36:33.668Z,11.07
2022-11-24T04:39:25.277Z,9.30
2022-11-24T04:42:06.892Z,10.90
2022-11-24T04:44:53.195Z,10.95
2022-11-24T04:47:34.535Z,11.73
2022-11-24T04:50:22.192Z,18.45
2022-11-24T04:53:09.208Z,14.23
2022-11-24T04:55:49.345Z,11.32
2022-11-24T04:58:36.215Z,10.77
2022-11-24T05:01:16.371Z,12.00
2022-11-24T05:04:03.271Z,11.27
2022-11-24T05:06:43.369Z,12.02
2022-11-24T05:09:54.893Z,8.00
2022-11-24T05:12:31.256Z,7.72
2022-11-24T05:15:25.191Z,13.77
2022-11-24T05:18:07.942Z,6.57
2022-11-24T05:20:54.206Z,7.45
2022-11-24T05:23:34.712Z,11.80
2022-11-24T05:26:21.191Z,8.32
2022-11-24T05:29:01.725Z,9.38
2022-11-24T05:31:48.246Z,8.48
2022-11-24T05:34:38.198Z,5.72
2022-11-24T05:37:18.280Z,6.53
2022-11-24T05:40:05.191Z,7.05
2022-11-24T05:42:47.990Z,3.67
2022-11-24T05:45:35.224Z,7.88
2022-11-24T05:48:18.257Z,3.75
2022-11-24T05:51:09.137Z,5.45
2022-11-24T05:53:49.345Z,1.95
2022-11-24T05:56:36.232Z,3.80
2022-11-24T05:59:16.328Z,6.55
2022-11-24T06:02:03.341Z,3.58
2022-11-24T06:04:43.299Z,2.63
2022-11-24T06:07:30.300Z,6.03
2022-11-24T06:10:11.331Z,4.53
2022-11-24T06:12:59.229Z,4.18
2022-11-24T06:15:47.196Z,3.83
2022-11-24T06:18:28.035Z,3.72
2022-11-24T06:21:17.174Z,3.47
2022-11-24T06:23:58.032Z,2.65
2022-11-24T06:26:44.232Z,5.22
2022-11-24T06:29:24.715Z,4.25
2022-11-24T06:32:11.187Z,6.03
2022-11-24T06:34:51.689Z,5.32
2022-11-24T06:37:38.193Z,2.97
2022-11-24T06:40:25.180Z,3.38
2022-11-24T06:43:05.364Z,3.45
2022-11-24T06:45:58.205Z,5.90
2022-11-24T06:48:39.260Z,5.65
2022-11-24T06:51:26.208Z,5.82
2022-11-24T06:54:06.232Z,15.85
2022-11-24T06:56:54.205Z,20.05
2022-11-24T06:59:34.303Z,23.33
2022-11-24T07:02:21.218Z,16.38
2022-11-24T07:05:01.298Z,37.47
2022-11-24T07:07:50.770Z,14.55
2022-11-24T07:10:30.289Z,13.90
2022-11-24T07:13:17.191Z,14.45
2022-11-24T07:16:04.270Z,9.57
2022-11-24T07:18:44.204Z,10.90
2022-11-24T07:21:32.277Z,8.73
2022-11-24T07:24:13.200Z,10.57
2022-11-24T07:29:40.198Z,11.48
2022-11-24T07:32:27.244Z,5.10
2022-11-24T07:35:07.206Z,7.65
2022-11-24T07:37:54.197Z,4.00
2022-11-24T07:40:41.212Z,6.57
2022-11-24T07:43:28.208Z,5.35
2022-11-24T07:46:15.292Z,5.38
2022-11-24T07:49:02.204Z,7.05
2022-11-24T07:51:42.288Z,5.30
2022-11-24T07:54:29.208Z,7.82
2022-11-24T07:57:16.198Z,4.38
2022-11-24T08:00:03.316Z,6.72
2022-11-24T08:02:43.650Z,7.93
2022-11-24T08:05:30.313Z,5.22
2022-11-24T08:08:10.221Z,9.00
2022-11-24T08:10:51.154Z,8.00
2022-11-24T08:16:33.256Z,5.50
2022-11-24T08:19:20.216Z,5.18
2022-11-24T08:22:00.284Z,4.90
2022-11-24T08:24:53.201Z,6.22
2022-11-24T08:27:33.256Z,5.00
2022-11-24T08:30:21.193Z,6.43
2022-11-24T08:33:01.276Z,5.22
2022-11-24T08:35:48.194Z,7.38
2022-11-24T08:38:35.193Z,4.88
2022-11-24T08:41:31.223Z,5.05
2022-11-24T08:44:18.316Z,7.05
2022-11-24T08:47:00.216Z,6.68
2022-11-24T08:49:47.251Z,6.15
2022-11-24T08:52:27.213Z,5.53
2022-11-24T08:55:08.051Z,5.32
2022-11-24T08:57:54.209Z,5.15
2022-11-24T09:00:41.258Z,6.43
2022-11-24T09:03:21.214Z,6.57
2022-11-24T09:06:02.484Z,5.82
2022-11-24T09:08:50.215Z,8.50
2022-11-24T09:11:33.008Z,7.13
2022-11-24T09:14:19.199Z,9.05
2022-11-24T09:17:06.297Z,6.03
2022-11-24T09:22:33.245Z,6.25
2022-11-24T09:25:14.217Z,5.80
2022-11-24T09:27:54.920Z,5.95
2022-11-24T09:30:42.256Z,4.20
2022-11-24T09:33:22.687Z,4.90
2022-11-24T09:36:09.199Z,5.78
2022-11-24T09:41:43.203Z,4.32
2022-11-24T09:44:41.260Z,5.70
2022-11-24T09:47:52.201Z,6.03
2022-11-24T09:50:47.229Z,4.13
2022-11-24T09:53:34.206Z,5.18
2022-11-24T09:59:29.213Z,4.95
2022-11-24T10:02:16.195Z,4.78
2022-11-24T10:08:07.208Z,4.78
2022-11-24T10:11:09.449Z,5.65
2022-11-24T10:14:26.203Z,5.15
2022-11-24T10:17:20.280Z,4.75
2022-11-24T10:20:12.216Z,5.85
2022-11-24T10:23:16.876Z,5.22
2022-11-24T10:26:09.215Z,5.45
2022-11-24T10:28:54.627Z,5.47
2022-11-24T10:31:48.214Z,7.32
2022-11-24T10:34:32.724Z,6.57
2022-11-24T10:37:19.218Z,5.15
2022-11-24T10:40:48.611Z,5.95
2022-11-24T10:43:28.252Z,4.68
2022-11-24T10:46:14.600Z,6.95
2022-11-24T10:49:09.240Z,5.82
2022-11-24T10:52:19.277Z,5.72
2022-11-24T10:55:17.265Z,7.32
2022-11-24T10:58:23.334Z,8.13
2022-11-24T11:01:06.287Z,7.80
2022-11-24T11:03:55.216Z,6.00
2022-11-24T11:06:38.007Z,7.90
2022-11-24T11:09:29.220Z,5.75
2022-11-24T11:12:42.565Z,5.75
2022-11-24T11:15:37.292Z,9.23
2022-11-24T11:18:32.204Z,6.85
2022-11-24T11:21:42.235Z,6.82
2022-11-24T11:24:31.235Z,10.18
2022-11-24T11:27:27.255Z,5.78
2022-11-24T11:36:41.230Z,7.40
2022-11-24T11:39:46.994Z,5.53
2022-11-24T11:43:02.411Z,7.13
2022-11-24T11:45:52.307Z,8.40
2022-11-24T11:48:43.621Z,6.57
2022-11-24T11:51:56.241Z,10.18
2022-11-24T11:55:08.383Z,9.77
2022-11-24T11:57:58.229Z,10.27
2022-11-24T12:00:43.288Z,7.05
2022-11-24T12:03:44.368Z,9.20
2022-11-24T12:06:36.278Z,7.78
2022-11-24T12:09:38.609Z,11.90
2022-11-24T12:12:34.224Z,6.88
2022-11-24T12:15:19.905Z,9.18
2022-11-24T12:18:55.775Z,9.57
2022-11-24T12:21:55.437Z,9.43
2022-11-24T12:25:01.352Z,9.25
2022-11-24T12:28:33.243Z,7.80
2022-11-24T12:31:21.285Z,7.65
2022-11-24T12:34:11.244Z,8.32
2022-11-24T12:37:17.233Z,8.65
2022-11-24T12:40:23.306Z,8.38
2022-11-24T12:43:26.320Z,8.27
2022-11-24T12:46:34.660Z,10.82
2022-11-24T12:49:52.241Z,7.68
2022-11-24T12:52:40.060Z,7.93
2022-11-24T12:55:31.242Z,9.60
2022-11-24T12:58:58.288Z,7.88
2022-11-24T13:02:10.325Z,10.25
2022-11-24T13:05:24.228Z,8.35
2022-11-24T13:08:15.233Z,12.20
2022-11-24T13:11:21.529Z,8.50
2022-11-24T13:14:13.251Z,10.13
2022-11-24T13:17:29.335Z,10.02
2022-11-24T13:20:26.237Z,7.57
2022-11-24T13:23:29.270Z,10.98
2022-11-24T13:26:36.350Z,9.80
2022-11-24T13:29:38.142Z,9.68
2022-11-24T13:32:18.241Z,7.03
2022-11-24T13:35:05.241Z,8.13
2022-11-24T13:37:54.338Z,10.50
2022-11-24T13:40:36.227Z,8.45
2022-11-24T13:43:23.220Z,10.38
2022-11-24T13:46:10.304Z,9.68
2022-11-24T13:48:57.519Z,11.77
2022-11-24T13:51:37.239Z,10.65
2022-11-24T13:54:24.291Z,7.32
2022-11-24T13:57:39.215Z,7.72
2022-11-24T14:00:41.250Z,9.90
2022-11-24T14:04:21.623Z,10.68
2022-11-24T14:07:07.015Z,10.10
2022-11-24T14:09:53.319Z,8.30
2022-11-24T14:12:40.279Z,9.27
2022-11-24T14:15:35.311Z,8.90
2022-11-24T14:18:29.254Z,7.85
2022-11-24T14:21:31.293Z,11.60
2022-11-24T14:24:39.831Z,10.85
2022-11-24T14:27:31.248Z,8.50
2022-11-24T14:30:20.255Z,9.10
2022-11-24T14:33:12.232Z,9.48
2022-11-24T14:35:52.838Z,8.25
2022-11-24T14:38:39.240Z,10.63
2022-11-24T14:44:15.331Z,8.20
2022-11-24T14:47:20.241Z,10.32
2022-11-24T14:50:08.303Z,12.35
2022-11-24T14:53:03.248Z,7.53
2022-11-24T14:55:43.280Z,13.07
2022-11-24T14:58:42.396Z,8.60
2022-11-24T15:01:42.315Z,11.27
2022-11-24T15:04:46.717Z,10.13
2022-11-24T15:07:38.495Z,9.25
2022-11-24T15:10:40.257Z,10.10
2022-11-24T15:13:32.243Z,11.20
2022-11-24T15:16:32.293Z,7.30
2022-11-24T15:19:23.241Z,10.73
2022-11-24T15:22:03.279Z,13.48
2022-11-24T15:25:00.241Z,13.00
2022-11-24T15:27:40.295Z,9.60
2022-11-24T15:30:27.264Z,11.30
2022-11-24T15:33:07.286Z,9.68
2022-11-24T15:35:55.252Z,9.80
2022-11-24T15:38:35.283Z,10.65
2022-11-24T15:41:34.242Z,9.60
2022-11-24T15:44:15.295Z,11.25
2022-11-24T15:47:02.320Z,9.05
2022-11-24T15:52:29.241Z,10.55
2022-11-24T15:57:56.741Z,10.80
2022-11-24T16:00:44.275Z,14.23
2022-11-24T16:03:46.337Z,11.00
2022-11-24T16:06:33.236Z,11.65
2022-11-24T16:09:16.240Z,12.02
2022-11-24T16:12:03.245Z,10.30
2022-11-24T16:17:30.242Z,8.02
2022-11-24T16:20:24.235Z,9.93
2022-11-24T16:23:12.300Z,8.73
2022-11-24T16:25:52.329Z,9.02
2022-11-24T16:28:40.435Z,8.40
2022-11-24T16:31:28.477Z,11.77
2022-11-24T16:34:15.326Z,10.85
2022-11-24T16:36:55.310Z,10.55
2022-11-24T16:39:48.425Z,12.32
2022-11-24T16:42:29.338Z,11.75
2022-11-24T16:45:19.243Z,10.40
2022-11-24T16:47:59.328Z,12.48
2022-11-24T16:50:46.253Z,11.30
2022-11-24T16:56:16.098Z,9.75
2022-11-24T16:59:02.240Z,10.18
2022-11-24T17:04:31.252Z,11.48
2022-11-24T17:07:18.350Z,8.73
2022-11-24T17:12:45.244Z,9.07
2022-11-24T17:18:26.388Z,10.27
2022-11-24T17:23:55.092Z,13.15
2022-11-24T17:26:47.478Z,9.90
2022-11-24T17:29:29.981Z,10.38
2022-11-24T17:32:16.333Z,12.30
2022-11-24T17:37:45.252Z,11.95
2022-11-24T17:40:32.316Z,11.57
2022-11-24T17:45:54.646Z,10.43
2022-11-24T17:48:42.258Z,14.25
2022-11-24T17:51:31.240Z,7.53
2022-11-24T17:54:45.905Z,12.52
2022-11-24T17:57:26.255Z,9.48
2022-11-24T18:00:06.264Z,7.70
2022-11-24T18:02:53.309Z,10.70
2022-11-24T18:08:20.255Z,10.93
2022-11-24T18:13:58.424Z,9.82
2022-11-24T18:16:48.345Z,11.63
2022-11-24T18:19:35.309Z,9.05
2022-11-24T18:25:02.280Z,11.65
2022-11-24T18:30:29.240Z,10.80
2022-11-24T18:36:07.242Z,8.95
2022-11-24T18:38:54.272Z,10.05
2022-11-24T18:44:28.738Z,6.78
2022-11-24T18:47:16.260Z,12.77
2022-11-24T18:50:00.034Z,10.98
2022-11-24T18:52:46.278Z,13.82
2022-11-24T18:58:13.276Z,14.00
2022-11-24T19:03:46.560Z,8.82
2022-11-24T19:06:32.487Z,10.63
2022-11-24T19:09:29.265Z,15.38
2022-11-24T19:12:10.777Z,10.80
2022-11-24T19:14:57.269Z,12.75
2022-11-24T19:20:40.273Z,7.78
2022-11-24T19:23:20.388Z,12.10
2022-11-24T19:26:11.275Z,8.63
2022-11-24T19:28:51.303Z,11.30
2022-11-24T19:31:39.483Z,7.72
2022-11-24T19:34:20.312Z,13.85
2022-11-24T19:37:07.271Z,12.25
2022-11-24T19:42:34.253Z,9.52
2022-11-24T19:48:01.727Z,8.25
2022-11-24T19:50:48.265Z,12.85
2022-11-24T19:56:18.260Z,10.93
2022-11-24T19:58:58.767Z,9.38
2022-11-24T20:01:47.310Z,9.68
2022-11-24T20:04:27.738Z,9.07
2022-11-24T20:07:14.291Z,11.00
2022-11-24T20:12:41.267Z,10.93
2022-11-24T20:18:08.506Z,11.82
2022-11-24T20:20:55.298Z,9.18
2022-11-24T20:23:35.287Z,11.32
2022-11-24T20:26:19.631Z,11.57
2022-11-24T20:29:08.407Z,9.23
2022-11-24T20:31:58.367Z,9.82
2022-11-24T20:34:45.519Z,8.73
2022-11-24T20:37:28.432Z,11.55
2022-11-24T20:40:15.283Z,10.55
2022-11-24T20:45:43.313Z,10.48
2022-11-24T20:48:30.369Z,10.15
2022-11-24T20:51:12.542Z,6.95
2022-11-24T20:54:03.256Z,8.18
2022-11-24T20:56:53.283Z,10.38
2022-11-24T20:59:40.328Z,7.75
2022-11-24T21:02:20.371Z,7.70
2022-11-24T21:05:01.458Z,7.53
2022-11-24T21:07:48.369Z,8.75
2022-11-24T21:10:28.955Z,8.70
2022-11-24T21:13:15.251Z,7.95
2022-11-24T21:18:51.445Z,7.57
2022-11-24T21:21:34.295Z,8.00
2022-11-24T21:24:17.289Z,10.15
2022-11-24T21:27:05.296Z,11.80
2022-11-24T21:29:52.267Z,8.50
2022-11-24T21:32:32.398Z,7.90
2022-11-24T21:35:26.284Z,7.68
2022-11-24T21:38:13.271Z,7.88
2022-11-24T21:41:00.287Z,7.10
2022-11-24T21:46:27.552Z,8.85
2022-11-24T21:51:54.307Z,13.38
2022-11-24T21:57:21.345Z,15.13
2022-11-24T22:00:01.847Z,12.80
2022-11-24T22:02:48.398Z,15.50
2022-11-24T22:05:28.826Z,14.38
2022-11-24T22:08:15.273Z,12.23
2022-11-24T22:13:50.362Z,12.13
2022-11-24T22:16:37.333Z,10.38
2022-11-24T22:19:24.339Z,12.90
2022-11-24T22:24:44.737Z,15.65
2022-11-24T22:27:31.284Z,15.57
2022-11-24T22:30:12.070Z,10.13
2022-11-24T22:32:58.308Z,11.82
2022-11-24T22:38:25.265Z,14.05
2022-11-24T22:41:15.387Z,12.88
2022-11-24T22:44:02.270Z,13.82
2022-11-24T22:46:49.336Z,9.40
2022-11-24T22:52:10.760Z,13.13
2022-11-24T22:54:57.268Z,13.95
2022-11-24T22:57:37.728Z,12.75
2022-11-24T23:00:25.490Z,12.00
2022-11-24T23:03:27.367Z,12.05
2022-11-24T23:06:18.271Z,13.55
2022-11-24T23:09:06.290Z,12.40
2022-11-24T23:11:53.279Z,12.52
2022-11-24T23:14:33.533Z,12.32
2022-11-24T23:17:27.256Z,17.02
2022-11-24T23:20:15.263Z,13.00
2022-11-24T23:22:56.840Z,9.43
2022-11-24T23:28:30.266Z,14.52
2022-11-24T23:31:13.718Z,14.20
2022-11-24T23:34:01.270Z,17.35
2022-11-24T23:36:48.260Z,11.98
2022-11-24T23:42:15.263Z,14.43
2022-11-24T23:44:55.455Z,10.35
2022-11-24T23:47:42.272Z,13.50
2022-11-24T23:50:22.375Z,13.88
2022-11-24T23:53:09.270Z,10.82
2022-11-24T23:55:49.324Z,16.50
2022-11-24T23:58:37.287Z,8.55
